sensor_id;sensor_type;location;lat;lon;timestamp;temperature;humidity
40868;DHT22;26586;50.708;22.412;2022-11-20T00:01:18;10.10;37.50
40868;DHT22;26586;50.708;22.412;2022-11-20T00:03:45;10.10;37.80
40868;DHT22;26586;50.708;22.412;2022-11-20T00:06:13;10.10;37.80
40868;DHT22;26586;50.708;22.412;2022-11-20T00:08:41;10.10;38.20
40868;DHT22;26586;50.708;22.412;2022-11-20T00:11:19;10.10;38.70
40868;DHT22;26586;50.708;22.412;2022-11-20T00:13:46;10.10;38.80
40868;DHT22;26586;50.708;22.412;2022-11-20T00:16:16;10.10;38.00
40868;DHT22;26586;50.708;22.412;2022-11-20T00:18:43;10.10;37.60
40868;DHT22;26586;50.708;22.412;2022-11-20T00:21:15;10.10;37.60
40868;DHT22;26586;50.708;22.412;2022-11-20T00:23:42;10.10;38.00
40868;DHT22;26586;50.708;22.412;2022-11-20T00:26:12;10.10;38.10
40868;DHT22;26586;50.708;22.412;2022-11-20T00:28:38;10.10;37.50
40868;DHT22;26586;50.708;22.412;2022-11-20T00:31:11;10.10;37.60
40868;DHT22;26586;50.708;22.412;2022-11-20T00:33:37;10.10;37.60
40868;DHT22;26586;50.708;22.412;2022-11-20T00:36:09;10.00;37.30
40868;DHT22;26586;50.708;22.412;2022-11-20T00:38:36;10.00;37.60
40868;DHT22;26586;50.708;22.412;2022-11-20T00:41:05;10.00;37.70
40868;DHT22;26586;50.708;22.412;2022-11-20T00:43:32;10.00;37.90
40868;DHT22;26586;50.708;22.412;2022-11-20T00:46:00;10.00;37.60
40868;DHT22;26586;50.708;22.412;2022-11-20T00:48:26;10.00;37.50
40868;DHT22;26586;50.708;22.412;2022-11-20T00:50:53;9.90;37.60
40868;DHT22;26586;50.708;22.412;2022-11-20T00:53:20;10.00;37.50
40868;DHT22;26586;50.708;22.412;2022-11-20T00:58:19;10.00;37.90
40868;DHT22;26586;50.708;22.412;2022-11-20T01:00:45;9.90;37.50
40868;DHT22;26586;50.708;22.412;2022-11-20T01:03:11;10.00;37.70
40868;DHT22;26586;50.708;22.412;2022-11-20T01:05:38;9.90;37.50
40868;DHT22;26586;50.708;22.412;2022-11-20T01:08:04;9.90;37.70
40868;DHT22;26586;50.708;22.412;2022-11-20T01:10:30;9.90;38.10
40868;DHT22;26586;50.708;22.412;2022-11-20T01:12:56;9.90;38.20
40868;DHT22;26586;50.708;22.412;2022-11-20T01:15:41;9.90;38.40
40868;DHT22;26586;50.708;22.412;2022-11-20T01:18:07;9.90;38.40
40868;DHT22;26586;50.708;22.412;2022-11-20T01:20:35;9.90;38.50
40868;DHT22;26586;50.708;22.412;2022-11-20T01:23:02;9.80;38.60
40868;DHT22;26586;50.708;22.412;2022-11-20T01:25:28;9.80;38.80
40868;DHT22;26586;50.708;22.412;2022-11-20T01:30:57;9.90;39.20
40868;DHT22;26586;50.708;22.412;2022-11-20T01:33:24;9.80;38.90
40868;DHT22;26586;50.708;22.412;2022-11-20T01:35:50;9.90;38.90
40868;DHT22;26586;50.708;22.412;2022-11-20T01:38:17;9.80;39.30
40868;DHT22;26586;50.708;22.412;2022-11-20T01:40:43;9.80;39.10
40868;DHT22;26586;50.708;22.412;2022-11-20T01:43:17;9.80;39.00
40868;DHT22;26586;50.708;22.412;2022-11-20T01:54:19;9.80;39.20
40868;DHT22;26586;50.708;22.412;2022-11-20T01:56:49;9.80;39.40
40868;DHT22;26586;50.708;22.412;2022-11-20T01:59:18;9.80;39.70
40868;DHT22;26586;50.708;22.412;2022-11-20T02:01:45;9.80;39.30
40868;DHT22;26586;50.708;22.412;2022-11-20T02:04:13;9.80;39.20
40868;DHT22;26586;50.708;22.412;2022-11-20T02:06:46;9.80;39.90
40868;DHT22;26586;50.708;22.412;2022-11-20T02:09:14;9.80;39.90
40868;DHT22;26586;50.708;22.412;2022-11-20T02:11:40;9.70;39.20
40868;DHT22;26586;50.708;22.412;2022-11-20T02:14:07;9.70;39.50
40868;DHT22;26586;50.708;22.412;2022-11-20T02:16:37;9.70;39.30
40868;DHT22;26586;50.708;22.412;2022-11-20T02:19:07;9.70;39.10
40868;DHT22;26586;50.708;22.412;2022-11-20T02:21:43;9.70;40.00
40868;DHT22;26586;50.708;22.412;2022-11-20T02:24:17;9.70;39.50
40868;DHT22;26586;50.708;22.412;2022-11-20T02:26:49;9.70;39.60
40868;DHT22;26586;50.708;22.412;2022-11-20T02:29:23;9.70;39.90
40868;DHT22;26586;50.708;22.412;2022-11-20T02:31:50;9.70;40.00
40868;DHT22;26586;50.708;22.412;2022-11-20T02:34:17;9.70;39.70
40868;DHT22;26586;50.708;22.412;2022-11-20T02:36:44;9.70;40.00
40868;DHT22;26586;50.708;22.412;2022-11-20T02:39:11;9.70;40.70
40868;DHT22;26586;50.708;22.412;2022-11-20T02:41:39;9.70;39.50
40868;DHT22;26586;50.708;22.412;2022-11-20T02:44:05;9.70;39.80
40868;DHT22;26586;50.708;22.412;2022-11-20T02:46:33;9.70;40.20
40868;DHT22;26586;50.708;22.412;2022-11-20T02:49:02;9.70;40.20
40868;DHT22;26586;50.708;22.412;2022-11-20T02:51:28;9.70;39.50
40868;DHT22;26586;50.708;22.412;2022-11-20T02:53:55;9.70;39.60
40868;DHT22;26586;50.708;22.412;2022-11-20T02:56:21;9.70;40.40
40868;DHT22;26586;50.708;22.412;2022-11-20T02:58:47;9.70;41.30
40868;DHT22;26586;50.708;22.412;2022-11-20T03:01:14;9.70;40.40
40868;DHT22;26586;50.708;22.412;2022-11-20T03:03:40;9.70;39.30
40868;DHT22;26586;50.708;22.412;2022-11-20T03:06:07;9.70;39.60
40868;DHT22;26586;50.708;22.412;2022-11-20T03:08:34;9.70;39.90
40868;DHT22;26586;50.708;22.412;2022-11-20T03:11:07;9.80;39.80
40868;DHT22;26586;50.708;22.412;2022-11-20T03:13:34;9.80;39.40
40868;DHT22;26586;50.708;22.412;2022-11-20T03:16:15;9.70;39.30
40868;DHT22;26586;50.708;22.412;2022-11-20T03:18:42;9.70;40.10
40868;DHT22;26586;50.708;22.412;2022-11-20T03:21:10;9.80;40.30
40868;DHT22;26586;50.708;22.412;2022-11-20T03:23:37;9.80;40.70
40868;DHT22;26586;50.708;22.412;2022-11-20T03:26:12;9.80;39.90
40868;DHT22;26586;50.708;22.412;2022-11-20T03:28:40;9.80;40.40
40868;DHT22;26586;50.708;22.412;2022-11-20T03:31:11;9.90;41.30
40868;DHT22;26586;50.708;22.412;2022-11-20T03:33:40;9.90;40.40
40868;DHT22;26586;50.708;22.412;2022-11-20T03:36:09;9.90;39.90
40868;DHT22;26586;50.708;22.412;2022-11-20T03:38:37;9.90;41.50
40868;DHT22;26586;50.708;22.412;2022-11-20T03:41:05;9.90;40.60
40868;DHT22;26586;50.708;22.412;2022-11-20T03:43:32;9.90;39.50
40868;DHT22;26586;50.708;22.412;2022-11-20T03:45:59;10.00;39.90
40868;DHT22;26586;50.708;22.412;2022-11-20T03:48:26;10.00;39.70
40868;DHT22;26586;50.708;22.412;2022-11-20T03:50:53;10.00;39.50
40868;DHT22;26586;50.708;22.412;2022-11-20T03:53:20;10.00;39.70
40868;DHT22;26586;50.708;22.412;2022-11-20T03:55:50;10.00;39.80
40868;DHT22;26586;50.708;22.412;2022-11-20T03:58:17;10.00;40.10
40868;DHT22;26586;50.708;22.412;2022-11-20T04:00:43;10.00;39.50
40868;DHT22;26586;50.708;22.412;2022-11-20T04:03:10;10.00;39.80
40868;DHT22;26586;50.708;22.412;2022-11-20T04:05:36;10.00;40.30
40868;DHT22;26586;50.708;22.412;2022-11-20T04:08:02;10.10;40.90
40868;DHT22;26586;50.708;22.412;2022-11-20T04:10:28;10.10;42.30
40868;DHT22;26586;50.708;22.412;2022-11-20T04:12:55;10.10;40.50
40868;DHT22;26586;50.708;22.412;2022-11-20T04:15:21;10.10;40.80
40868;DHT22;26586;50.708;22.412;2022-11-20T04:17:47;10.20;40.80
40868;DHT22;26586;50.708;22.412;2022-11-20T04:20:13;10.20;40.80
40868;DHT22;26586;50.708;22.412;2022-11-20T04:22:40;10.20;41.20
40868;DHT22;26586;50.708;22.412;2022-11-20T04:25:06;10.30;41.90
40868;DHT22;26586;50.708;22.412;2022-11-20T04:27:33;10.30;41.60
40868;DHT22;26586;50.708;22.412;2022-11-20T04:29:59;10.30;41.80
40868;DHT22;26586;50.708;22.412;2022-11-20T04:32:26;10.30;40.90
40868;DHT22;26586;50.708;22.412;2022-11-20T04:34:52;10.40;40.40
40868;DHT22;26586;50.708;22.412;2022-11-20T04:37:18;10.40;39.70
40868;DHT22;26586;50.708;22.412;2022-11-20T04:39:44;10.40;39.80
40868;DHT22;26586;50.708;22.412;2022-11-20T04:42:10;10.40;39.90
40868;DHT22;26586;50.708;22.412;2022-11-20T04:44:55;10.40;39.80
40868;DHT22;26586;50.708;22.412;2022-11-20T04:47:21;10.40;40.40
40868;DHT22;26586;50.708;22.412;2022-11-20T04:49:47;10.40;39.70
40868;DHT22;26586;50.708;22.412;2022-11-20T04:52:14;10.40;40.60
40868;DHT22;26586;50.708;22.412;2022-11-20T04:54:40;10.50;41.10
40868;DHT22;26586;50.708;22.412;2022-11-20T04:57:06;10.50;41.40
40868;DHT22;26586;50.708;22.412;2022-11-20T04:59:32;10.50;44.30
40868;DHT22;26586;50.708;22.412;2022-11-20T05:01:59;10.60;45.00
40868;DHT22;26586;50.708;22.412;2022-11-20T05:04:25;10.60;44.20
40868;DHT22;26586;50.708;22.412;2022-11-20T05:06:51;10.60;43.00
40868;DHT22;26586;50.708;22.412;2022-11-20T05:09:17;10.60;43.90
40868;DHT22;26586;50.708;22.412;2022-11-20T05:11:44;10.70;43.90
40868;DHT22;26586;50.708;22.412;2022-11-20T05:14:10;10.70;40.70
40868;DHT22;26586;50.708;22.412;2022-11-20T05:16:36;10.80;41.50
40868;DHT22;26586;50.708;22.412;2022-11-20T05:19:02;10.70;40.10
40868;DHT22;26586;50.708;22.412;2022-11-20T05:21:30;10.70;40.30
40868;DHT22;26586;50.708;22.412;2022-11-20T05:23:58;10.70;39.90
40868;DHT22;26586;50.708;22.412;2022-11-20T05:26:24;10.70;40.40
40868;DHT22;26586;50.708;22.412;2022-11-20T05:28:51;10.70;40.90
40868;DHT22;26586;50.708;22.412;2022-11-20T05:31:19;10.70;40.40
40868;DHT22;26586;50.708;22.412;2022-11-20T05:33:46;10.70;40.10
40868;DHT22;26586;50.708;22.412;2022-11-20T05:36:14;10.70;40.90
40868;DHT22;26586;50.708;22.412;2022-11-20T05:38:41;10.70;40.80
40868;DHT22;26586;50.708;22.412;2022-11-20T05:41:15;10.70;40.30
40868;DHT22;26586;50.708;22.412;2022-11-20T05:43:43;10.80;39.80
40868;DHT22;26586;50.708;22.412;2022-11-20T05:46:11;10.70;39.00
40868;DHT22;26586;50.708;22.412;2022-11-20T05:48:39;10.70;39.00
40868;DHT22;26586;50.708;22.412;2022-11-20T05:51:07;10.60;38.90
40868;DHT22;26586;50.708;22.412;2022-11-20T05:53:34;10.60;39.40
40868;DHT22;26586;50.708;22.412;2022-11-20T05:56:03;10.60;39.20
40868;DHT22;26586;50.708;22.412;2022-11-20T05:58:31;10.60;39.60
40868;DHT22;26586;50.708;22.412;2022-11-20T06:01:10;10.60;39.80
40868;DHT22;26586;50.708;22.412;2022-11-20T06:03:37;10.60;39.70
40868;DHT22;26586;50.708;22.412;2022-11-20T06:06:04;10.50;39.50
40868;DHT22;26586;50.708;22.412;2022-11-20T06:08:31;10.50;40.00
40868;DHT22;26586;50.708;22.412;2022-11-20T06:10:58;10.50;40.40
40868;DHT22;26586;50.708;22.412;2022-11-20T06:13:24;10.50;40.40
40868;DHT22;26586;50.708;22.412;2022-11-20T06:15:54;10.40;41.10
40868;DHT22;26586;50.708;22.412;2022-11-20T06:18:20;10.40;40.30
40868;DHT22;26586;50.708;22.412;2022-11-20T06:20:47;10.40;40.70
40868;DHT22;26586;50.708;22.412;2022-11-20T06:23:14;10.40;41.50
40868;DHT22;26586;50.708;22.412;2022-11-20T06:25:41;10.40;41.60
40868;DHT22;26586;50.708;22.412;2022-11-20T06:28:08;10.40;42.10
40868;DHT22;26586;50.708;22.412;2022-11-20T06:30:35;10.40;43.00
40868;DHT22;26586;50.708;22.412;2022-11-20T06:33:01;10.40;42.30
40868;DHT22;26586;50.708;22.412;2022-11-20T06:35:28;10.40;42.50
40868;DHT22;26586;50.708;22.412;2022-11-20T06:37:55;10.50;43.10
40868;DHT22;26586;50.708;22.412;2022-11-20T06:40:22;10.50;42.50
40868;DHT22;26586;50.708;22.412;2022-11-20T06:42:48;10.50;42.90
40868;DHT22;26586;50.708;22.412;2022-11-20T06:45:14;10.50;42.30
40868;DHT22;26586;50.708;22.412;2022-11-20T06:47:40;10.50;41.80
40868;DHT22;26586;50.708;22.412;2022-11-20T06:50:07;10.60;42.40
40868;DHT22;26586;50.708;22.412;2022-11-20T06:52:33;10.50;42.50
40868;DHT22;26586;50.708;22.412;2022-11-20T06:54:59;10.50;42.30
40868;DHT22;26586;50.708;22.412;2022-11-20T06:57:26;10.60;43.20
40868;DHT22;26586;50.708;22.412;2022-11-20T06:59:52;10.60;42.90
40868;DHT22;26586;50.708;22.412;2022-11-20T07:02:18;10.60;42.60
40868;DHT22;26586;50.708;22.412;2022-11-20T07:04:44;10.60;42.80
40868;DHT22;26586;50.708;22.412;2022-11-20T07:07:10;10.70;43.00
40868;DHT22;26586;50.708;22.412;2022-11-20T07:09:37;10.70;42.80
40868;DHT22;26586;50.708;22.412;2022-11-20T07:12:03;10.70;43.20
40868;DHT22;26586;50.708;22.412;2022-11-20T07:14:29;10.70;43.10
40868;DHT22;26586;50.708;22.412;2022-11-20T07:16:56;10.80;43.20
40868;DHT22;26586;50.708;22.412;2022-11-20T07:19:22;10.80;43.20
40868;DHT22;26586;50.708;22.412;2022-11-20T07:21:48;10.90;43.60
40868;DHT22;26586;50.708;22.412;2022-11-20T07:24:14;10.90;44.10
40868;DHT22;26586;50.708;22.412;2022-11-20T07:26:41;10.90;44.80
40868;DHT22;26586;50.708;22.412;2022-11-20T07:29:07;10.90;42.80
40868;DHT22;26586;50.708;22.412;2022-11-20T07:31:33;10.90;42.00
40868;DHT22;26586;50.708;22.412;2022-11-20T07:33:59;10.80;42.00
40868;DHT22;26586;50.708;22.412;2022-11-20T07:36:25;10.80;42.30
40868;DHT22;26586;50.708;22.412;2022-11-20T07:38:52;10.80;42.00
40868;DHT22;26586;50.708;22.412;2022-11-20T07:41:18;10.70;42.30
40868;DHT22;26586;50.708;22.412;2022-11-20T07:43:44;10.70;42.40
40868;DHT22;26586;50.708;22.412;2022-11-20T07:46:10;10.60;42.40
40868;DHT22;26586;50.708;22.412;2022-11-20T07:48:37;10.60;42.50
40868;DHT22;26586;50.708;22.412;2022-11-20T07:51:03;10.60;42.60
40868;DHT22;26586;50.708;22.412;2022-11-20T07:53:29;10.60;42.90
40868;DHT22;26586;50.708;22.412;2022-11-20T07:56:00;10.60;42.80
40868;DHT22;26586;50.708;22.412;2022-11-20T07:58:29;10.60;42.90
40868;DHT22;26586;50.708;22.412;2022-11-20T08:00:55;10.60;42.80
40868;DHT22;26586;50.708;22.412;2022-11-20T08:03:23;10.60;42.80
40868;DHT22;26586;50.708;22.412;2022-11-20T08:05:49;10.60;42.70
40868;DHT22;26586;50.708;22.412;2022-11-20T08:08:16;10.70;42.80
40868;DHT22;26586;50.708;22.412;2022-11-20T08:10:42;10.70;43.00
40868;DHT22;26586;50.708;22.412;2022-11-20T08:13:08;10.70;42.90
40868;DHT22;26586;50.708;22.412;2022-11-20T08:15:53;10.70;45.40
40868;DHT22;26586;50.708;22.412;2022-11-20T08:18:19;10.80;46.00
40868;DHT22;26586;50.708;22.412;2022-11-20T08:20:45;10.90;45.80
40868;DHT22;26586;50.708;22.412;2022-11-20T08:23:19;11.10;45.60
40868;DHT22;26586;50.708;22.412;2022-11-20T08:25:49;11.20;48.80
40868;DHT22;26586;50.708;22.412;2022-11-20T08:28:16;11.20;45.90
40868;DHT22;26586;50.708;22.412;2022-11-20T08:30:42;11.30;44.50
40868;DHT22;26586;50.708;22.412;2022-11-20T08:33:09;11.40;45.60
40868;DHT22;26586;50.708;22.412;2022-11-20T08:35:36;11.50;56.70
40868;DHT22;26586;50.708;22.412;2022-11-20T08:38:04;11.50;47.20
40868;DHT22;26586;50.708;22.412;2022-11-20T08:40:31;11.60;47.70
40868;DHT22;26586;50.708;22.412;2022-11-20T08:42:57;11.70;46.00
40868;DHT22;26586;50.708;22.412;2022-11-20T08:45:23;11.80;45.90
40868;DHT22;26586;50.708;22.412;2022-11-20T08:47:50;11.80;47.90
40868;DHT22;26586;50.708;22.412;2022-11-20T08:50:17;11.90;43.70
40868;DHT22;26586;50.708;22.412;2022-11-20T08:52:43;11.90;44.80
40868;DHT22;26586;50.708;22.412;2022-11-20T08:55:10;11.90;43.00
40868;DHT22;26586;50.708;22.412;2022-11-20T08:57:37;12.00;43.40
40868;DHT22;26586;50.708;22.412;2022-11-20T09:00:05;12.00;43.00
40868;DHT22;26586;50.708;22.412;2022-11-20T09:02:32;12.00;42.90
40868;DHT22;26586;50.708;22.412;2022-11-20T09:05:16;12.10;43.00
40868;DHT22;26586;50.708;22.412;2022-11-20T09:07:42;12.10;43.50
40868;DHT22;26586;50.708;22.412;2022-11-20T09:10:08;12.10;44.80
40868;DHT22;26586;50.708;22.412;2022-11-20T09:12:36;12.10;43.50
40868;DHT22;26586;50.708;22.412;2022-11-20T09:15:02;12.20;46.20
40868;DHT22;26586;50.708;22.412;2022-11-20T09:17:29;12.30;46.60
40868;DHT22;26586;50.708;22.412;2022-11-20T09:19:55;12.30;42.90
40868;DHT22;26586;50.708;22.412;2022-11-20T09:22:21;12.30;42.30
40868;DHT22;26586;50.708;22.412;2022-11-20T09:24:47;12.30;42.00
40868;DHT22;26586;50.708;22.412;2022-11-20T09:27:14;12.30;42.50
40868;DHT22;26586;50.708;22.412;2022-11-20T09:29:40;12.30;42.10
40868;DHT22;26586;50.708;22.412;2022-11-20T09:32:06;12.40;42.90
40868;DHT22;26586;50.708;22.412;2022-11-20T09:34:32;12.40;41.80
40868;DHT22;26586;50.708;22.412;2022-11-20T09:36:59;12.40;42.20
40868;DHT22;26586;50.708;22.412;2022-11-20T09:39:25;12.50;41.50
40868;DHT22;26586;50.708;22.412;2022-11-20T09:42:11;12.40;41.70
40868;DHT22;26586;50.708;22.412;2022-11-20T09:52:58;12.60;41.30
40868;DHT22;26586;50.708;22.412;2022-11-20T09:55:29;12.60;41.00
40868;DHT22;26586;50.708;22.412;2022-11-20T09:57:58;12.60;44.50
40868;DHT22;26586;50.708;22.412;2022-11-20T10:00:26;12.60;43.00
40868;DHT22;26586;50.708;22.412;2022-11-20T10:03:14;12.70;42.50
40868;DHT22;26586;50.708;22.412;2022-11-20T10:05:47;12.70;41.10
40868;DHT22;26586;50.708;22.412;2022-11-20T10:08:28;12.70;40.80
40868;DHT22;26586;50.708;22.412;2022-11-20T10:19:04;12.80;40.50
40868;DHT22;26586;50.708;22.412;2022-11-20T10:25:28;12.80;40.80
40868;DHT22;26586;50.708;22.412;2022-11-20T10:30:10;12.80;44.00
40868;DHT22;26586;50.708;22.412;2022-11-20T10:32:48;12.90;43.60
40868;DHT22;26586;50.708;22.412;2022-11-20T10:35:35;12.90;41.80
40868;DHT22;26586;50.708;22.412;2022-11-20T10:38:12;12.90;40.40
40868;DHT22;26586;50.708;22.412;2022-11-20T10:40:53;12.90;42.60
40868;DHT22;26586;50.708;22.412;2022-11-20T10:43:43;12.90;43.80
40868;DHT22;26586;50.708;22.412;2022-11-20T10:46:16;13.00;43.20
40868;DHT22;26586;50.708;22.412;2022-11-20T10:48:44;13.00;40.90
40868;DHT22;26586;50.708;22.412;2022-11-20T10:56:50;13.00;40.90
40868;DHT22;26586;50.708;22.412;2022-11-20T11:01:51;13.10;41.60
40868;DHT22;26586;50.708;22.412;2022-11-20T11:04:51;13.10;41.20
40868;DHT22;26586;50.708;22.412;2022-11-20T11:07:23;13.10;42.30
40868;DHT22;26586;50.708;22.412;2022-11-20T11:09:56;13.10;42.40
40868;DHT22;26586;50.708;22.412;2022-11-20T11:12:25;13.20;43.00
40868;DHT22;26586;50.708;22.412;2022-11-20T11:14:56;13.20;43.30
40868;DHT22;26586;50.708;22.412;2022-11-20T11:17:30;13.20;45.20
40868;DHT22;26586;50.708;22.412;2022-11-20T11:20:01;13.30;48.20
40868;DHT22;26586;50.708;22.412;2022-11-20T11:22:33;13.30;43.00
40868;DHT22;26586;50.708;22.412;2022-11-20T11:25:00;13.30;43.80
40868;DHT22;26586;50.708;22.412;2022-11-20T11:27:27;13.30;41.50
40868;DHT22;26586;50.708;22.412;2022-11-20T11:30:14;13.30;42.20
40868;DHT22;26586;50.708;22.412;2022-11-20T11:32:42;13.40;44.20
40868;DHT22;26586;50.708;22.412;2022-11-20T11:35:27;13.40;41.30
40868;DHT22;26586;50.708;22.412;2022-11-20T11:38:06;13.40;41.20
40868;DHT22;26586;50.708;22.412;2022-11-20T11:40:35;13.40;40.50
40868;DHT22;26586;50.708;22.412;2022-11-20T11:43:20;13.40;42.10
40868;DHT22;26586;50.708;22.412;2022-11-20T11:46:29;13.40;40.80
40868;DHT22;26586;50.708;22.412;2022-11-20T11:49:10;13.50;42.80
40868;DHT22;26586;50.708;22.412;2022-11-20T11:54:18;13.50;43.00
40868;DHT22;26586;50.708;22.412;2022-11-20T11:56:46;13.60;44.20
40868;DHT22;26586;50.708;22.412;2022-11-20T11:59:25;13.60;45.10
40868;DHT22;26586;50.708;22.412;2022-11-20T12:01:56;13.60;44.70
40868;DHT22;26586;50.708;22.412;2022-11-20T12:04:44;13.70;44.40
40868;DHT22;26586;50.708;22.412;2022-11-20T12:07:42;13.70;43.20
40868;DHT22;26586;50.708;22.412;2022-11-20T12:10:21;13.70;42.40
40868;DHT22;26586;50.708;22.412;2022-11-20T12:12:55;13.70;44.00
40868;DHT22;26586;50.708;22.412;2022-11-20T12:15:33;13.80;44.60
40868;DHT22;26586;50.708;22.412;2022-11-20T12:18:00;13.80;48.80
40868;DHT22;26586;50.708;22.412;2022-11-20T12:20:35;13.80;44.20
40868;DHT22;26586;50.708;22.412;2022-11-20T12:26:02;13.90;42.30
40868;DHT22;26586;50.708;22.412;2022-11-20T12:32:04;13.90;43.00
40868;DHT22;26586;50.708;22.412;2022-11-20T12:39:58;14.00;43.20
40868;DHT22;26586;50.708;22.412;2022-11-20T12:43:01;14.00;43.60
40868;DHT22;26586;50.708;22.412;2022-11-20T12:49:15;14.00;40.40
40868;DHT22;26586;50.708;22.412;2022-11-20T12:52:04;14.00;40.10
40868;DHT22;26586;50.708;22.412;2022-11-20T12:54:42;14.00;40.70
40868;DHT22;26586;50.708;22.412;2022-11-20T13:00:16;14.10;40.60
40868;DHT22;26586;50.708;22.412;2022-11-20T13:05:51;14.10;39.40
40868;DHT22;26586;50.708;22.412;2022-11-20T13:08:27;14.10;39.60
40868;DHT22;26586;50.708;22.412;2022-11-20T13:16:52;14.00;39.40
40868;DHT22;26586;50.708;22.412;2022-11-20T13:19:20;14.10;40.20
40868;DHT22;26586;50.708;22.412;2022-11-20T13:21:48;14.10;39.90
40868;DHT22;26586;50.708;22.412;2022-11-20T13:24:23;14.10;39.50
40868;DHT22;26586;50.708;22.412;2022-11-20T13:29:44;14.10;41.60
40868;DHT22;26586;50.708;22.412;2022-11-20T13:32:19;14.20;41.00
40868;DHT22;26586;50.708;22.412;2022-11-20T13:35:00;14.20;41.40
40868;DHT22;26586;50.708;22.412;2022-11-20T13:37:36;14.20;44.90
40868;DHT22;26586;50.708;22.412;2022-11-20T13:42:37;14.20;43.50
40868;DHT22;26586;50.708;22.412;2022-11-20T13:45:30;14.30;42.90
40868;DHT22;26586;50.708;22.412;2022-11-20T13:47:58;14.30;44.80
40868;DHT22;26586;50.708;22.412;2022-11-20T13:50:55;14.30;44.80
40868;DHT22;26586;50.708;22.412;2022-11-20T14:01:33;14.40;44.00
40868;DHT22;26586;50.708;22.412;2022-11-20T14:04:07;14.40;44.60
40868;DHT22;26586;50.708;22.412;2022-11-20T14:06:44;14.40;43.20
40868;DHT22;26586;50.708;22.412;2022-11-20T14:09:31;14.40;47.30
40868;DHT22;26586;50.708;22.412;2022-11-20T14:11:57;14.40;44.00
40868;DHT22;26586;50.708;22.412;2022-11-20T14:14:26;14.50;42.50
40868;DHT22;26586;50.708;22.412;2022-11-20T14:17:15;14.50;51.00
40868;DHT22;26586;50.708;22.412;2022-11-20T14:19:44;14.50;41.60
40868;DHT22;26586;50.708;22.412;2022-11-20T14:22:18;14.50;39.70
40868;DHT22;26586;50.708;22.412;2022-11-20T14:24:45;14.50;41.40
40868;DHT22;26586;50.708;22.412;2022-11-20T14:27:16;14.50;40.30
40868;DHT22;26586;50.708;22.412;2022-11-20T14:29:45;14.50;39.40
40868;DHT22;26586;50.708;22.412;2022-11-20T14:32:18;14.50;40.00
40868;DHT22;26586;50.708;22.412;2022-11-20T14:34:47;14.50;39.30
40868;DHT22;26586;50.708;22.412;2022-11-20T14:37:20;14.50;41.30
40868;DHT22;26586;50.708;22.412;2022-11-20T14:39:53;14.50;40.80
40868;DHT22;26586;50.708;22.412;2022-11-20T14:42:25;14.50;40.90
40868;DHT22;26586;50.708;22.412;2022-11-20T14:44:58;14.50;41.50
40868;DHT22;26586;50.708;22.412;2022-11-20T14:47:29;14.60;41.20
40868;DHT22;26586;50.708;22.412;2022-11-20T14:49:57;14.60;41.80
40868;DHT22;26586;50.708;22.412;2022-11-20T14:52:26;14.60;41.50
40868;DHT22;26586;50.708;22.412;2022-11-20T14:54:56;14.60;40.70
40868;DHT22;26586;50.708;22.412;2022-11-20T14:57:32;14.60;41.90
40868;DHT22;26586;50.708;22.412;2022-11-20T15:00:06;14.60;41.40
40868;DHT22;26586;50.708;22.412;2022-11-20T15:02:33;14.50;40.40
40868;DHT22;26586;50.708;22.412;2022-11-20T15:05:01;14.60;39.20
40868;DHT22;26586;50.708;22.412;2022-11-20T15:07:32;14.60;39.00
40868;DHT22;26586;50.708;22.412;2022-11-20T15:10:05;14.50;39.20
40868;DHT22;26586;50.708;22.412;2022-11-20T15:12:35;14.50;39.60
40868;DHT22;26586;50.708;22.412;2022-11-20T15:15:04;14.50;38.80
40868;DHT22;26586;50.708;22.412;2022-11-20T15:17:32;14.50;38.50
40868;DHT22;26586;50.708;22.412;2022-11-20T15:20:01;14.40;38.40
40868;DHT22;26586;50.708;22.412;2022-11-20T15:22:27;14.40;38.70
40868;DHT22;26586;50.708;22.412;2022-11-20T15:24:54;14.40;39.60
40868;DHT22;26586;50.708;22.412;2022-11-20T15:27:20;14.40;39.10
40868;DHT22;26586;50.708;22.412;2022-11-20T15:29:47;14.40;39.30
40868;DHT22;26586;50.708;22.412;2022-11-20T15:32:13;14.40;38.80
40868;DHT22;26586;50.708;22.412;2022-11-20T15:34:39;14.40;40.10
40868;DHT22;26586;50.708;22.412;2022-11-20T15:37:05;14.40;40.20
40868;DHT22;26586;50.708;22.412;2022-11-20T15:39:32;14.40;41.40
40868;DHT22;26586;50.708;22.412;2022-11-20T15:41:58;14.40;41.40
40868;DHT22;26586;50.708;22.412;2022-11-20T15:44:24;14.40;40.90
40868;DHT22;26586;50.708;22.412;2022-11-20T15:46:50;14.40;40.10
40868;DHT22;26586;50.708;22.412;2022-11-20T15:49:17;14.40;39.50
40868;DHT22;26586;50.708;22.412;2022-11-20T15:51:44;14.40;40.20
40868;DHT22;26586;50.708;22.412;2022-11-20T15:54:18;14.40;39.10
40868;DHT22;26586;50.708;22.412;2022-11-20T15:56:49;14.40;39.90
40868;DHT22;26586;50.708;22.412;2022-11-20T15:59:15;14.40;39.80
40868;DHT22;26586;50.708;22.412;2022-11-20T16:01:41;14.40;40.80
40868;DHT22;26586;50.708;22.412;2022-11-20T16:04:12;14.40;39.10
40868;DHT22;26586;50.708;22.412;2022-11-20T16:06:39;14.40;40.00
40868;DHT22;26586;50.708;22.412;2022-11-20T16:09:06;14.40;40.40
40868;DHT22;26586;50.708;22.412;2022-11-20T16:11:33;14.40;40.40
40868;DHT22;26586;50.708;22.412;2022-11-20T16:14:01;14.40;41.80
40868;DHT22;26586;50.708;22.412;2022-11-20T16:16:46;14.40;43.70
40868;DHT22;26586;50.708;22.412;2022-11-20T16:19:13;14.40;43.30
40868;DHT22;26586;50.708;22.412;2022-11-20T16:21:42;14.40;41.20
40868;DHT22;26586;50.708;22.412;2022-11-20T16:24:10;14.40;40.80
40868;DHT22;26586;50.708;22.412;2022-11-20T16:26:38;14.40;42.50
40868;DHT22;26586;50.708;22.412;2022-11-20T16:29:06;14.40;42.20
40868;DHT22;26586;50.708;22.412;2022-11-20T16:31:32;14.40;40.60
40868;DHT22;26586;50.708;22.412;2022-11-20T16:34:02;14.50;40.60
40868;DHT22;26586;50.708;22.412;2022-11-20T16:36:29;14.50;40.40
40868;DHT22;26586;50.708;22.412;2022-11-20T16:38:57;14.40;39.80
40868;DHT22;26586;50.708;22.412;2022-11-20T16:41:25;14.40;39.50
40868;DHT22;26586;50.708;22.412;2022-11-20T16:43:56;14.40;40.00
40868;DHT22;26586;50.708;22.412;2022-11-20T16:46:30;14.40;41.40
40868;DHT22;26586;50.708;22.412;2022-11-20T16:49:05;14.40;40.30
40868;DHT22;26586;50.708;22.412;2022-11-20T16:51:34;14.40;42.20
40868;DHT22;26586;50.708;22.412;2022-11-20T16:54:02;14.40;40.30
40868;DHT22;26586;50.708;22.412;2022-11-20T16:56:29;14.40;40.90
40868;DHT22;26586;50.708;22.412;2022-11-20T16:58:57;14.40;42.60
40868;DHT22;26586;50.708;22.412;2022-11-20T17:01:24;14.40;42.40